Time;durP1;ratioP1;P1;durP2;ratioP2;P2;SDS_P1;SDS_P2;PMS_P1;PMS_P2;Temp;Humidity;BMP_temperature;BMP_pressure;BME280_temperature;BME280_humidity;BME280_pressure;Samples;Min_cycle;Max_cycle;Signal;HPM_P1;HPM_P2
2023/09/11 00:01:35;;;;;;;12.70;3.40;;;20.10;99.90;;;;;;5033149;28;20493;-80
2023/09/11 00:04:02;;;;;;;4.23;3.80;;;20.00;99.90;;;;;;5032889;28;20449;-81
2023/09/11 00:06:29;;;;;;;3.63;3.30;;;19.90;99.90;;;;;;5035070;28;20473;-81
2023/09/11 00:09:00;;;;;;;8.50;3.97;;;19.90;99.90;;;;;;5037503;28;20449;-81
2023/09/11 00:11:28;;;;;;;4.80;3.60;;;19.90;99.90;;;;;;5037259;28;20425;-80
2023/09/11 00:13:55;;;;;;;6.33;3.70;;;19.80;99.90;;;;;;5037204;28;20442;-80
2023/09/11 00:16:21;;;;;;;4.50;3.00;;;19.90;99.90;;;;;;5037096;28;20457;-80
2023/09/11 00:18:48;;;;;;;3.27;3.00;;;19.80;99.90;;;;;;5037109;28;20443;-80
2023/09/11 00:21:15;;;;;;;4.27;3.90;;;19.70;99.90;;;;;;5036984;28;20553;-80
2023/09/11 00:23:41;;;;;;;4.83;3.60;;;19.70;99.90;;;;;;5037008;28;20450;-80
2023/09/11 00:26:08;;;;;;;5.70;3.53;;;19.60;99.90;;;;;;5036465;28;20847;-81
2023/09/11 00:28:36;;;;;;;6.90;4.43;;;19.70;99.90;;;;;;5036888;28;20947;-81
2023/09/11 00:31:03;;;;;;;9.30;3.80;;;19.60;99.90;;;;;;5036873;28;20453;-81
2023/09/11 00:33:30;;;;;;;4.47;3.00;;;19.60;99.90;;;;;;5036851;28;20453;-81
2023/09/11 00:35:56;;;;;;;8.87;3.87;;;19.60;99.90;;;;;;5036702;28;20462;-81
2023/09/11 00:38:23;;;;;;;7.40;3.83;;;19.60;99.90;;;;;;5036729;28;20446;-81
2023/09/11 00:40:50;;;;;;;3.87;3.27;;;19.60;99.90;;;;;;5037057;28;20442;-80
2023/09/11 00:43:17;;;;;;;5.53;3.40;;;19.60;99.90;;;;;;5036981;28;20439;-80
2023/09/11 00:45:46;;;;;;;3.53;2.77;;;19.50;99.90;;;;;;5036276;28;20461;-80
2023/09/11 00:48:14;;;;;;;3.90;3.13;;;19.50;99.90;;;;;;5036536;28;20454;-80
2023/09/11 00:50:43;;;;;;;4.57;3.63;;;19.50;99.90;;;;;;5036182;28;20446;-81
2023/09/11 00:53:11;;;;;;;9.13;3.50;;;19.50;99.90;;;;;;5036189;28;20969;-81
2023/09/11 00:55:39;;;;;;;5.60;3.60;;;19.50;99.90;;;;;;5036120;28;20462;-81
2023/09/11 00:58:06;;;;;;;3.50;3.17;;;19.50;99.90;;;;;;5036109;28;20963;-80
2023/09/11 01:00:33;;;;;;;4.13;3.00;;;19.60;99.90;;;;;;5036725;28;20458;-80
2023/09/11 01:03:01;;;;;;;4.37;3.03;;;19.50;99.90;;;;;;5036188;28;20489;-80
2023/09/11 01:05:30;;;;;;;5.60;3.30;;;19.50;99.90;;;;;;5036867;28;20466;-81
2023/09/11 01:07:56;;;;;;;3.20;2.80;;;19.40;99.90;;;;;;5036284;28;20449;-81
2023/09/11 01:10:23;;;;;;;3.63;2.80;;;19.50;99.90;;;;;;5036127;28;20446;-80
2023/09/11 01:12:50;;;;;;;4.67;3.27;;;19.40;99.90;;;;;;5035986;28;20438;-81
2023/09/11 01:15:17;;;;;;;4.20;2.60;;;19.40;99.90;;;;;;5036017;28;20467;-81
2023/09/11 01:17:51;;;;;;;4.20;3.20;;;19.40;99.90;;;;;;5034702;28;20549;-81
2023/09/11 01:20:47;;;;;;;3.23;2.93;;;19.40;99.90;;;;;;5035838;28;20419;-81
2023/09/11 01:24:06;;;;;;;3.03;2.60;;;19.40;99.90;;;;;;5035862;28;20839;-80
2023/09/11 01:27:13;;;;;;;3.90;3.47;;;19.30;99.90;;;;;;4955410;29;20842;-80
2023/09/11 01:29:41;;;;;;;6.70;3.40;;;19.30;99.90;;;;;;4898628;29;20897;-80
2023/09/11 01:32:11;;;;;;;3.47;2.90;;;19.30;99.90;;;;;;5014592;28;20450;-80
2023/09/11 01:34:38;;;;;;;6.03;4.03;;;19.30;99.90;;;;;;5035326;28;20450;-80
2023/09/11 01:37:04;;;;;;;6.03;2.80;;;19.30;99.90;;;;;;5035634;28;20445;-80
2023/09/11 01:39:31;;;;;;;4.83;3.57;;;19.30;99.90;;;;;;5035417;28;20944;-80
2023/09/11 01:42:07;;;;;;;3.27;3.00;;;19.30;99.90;;;;;;5035297;28;20478;-80
2023/09/11 01:44:39;;;;;;;4.17;2.87;;;19.30;99.90;;;;;;5035490;28;20439;-80
2023/09/11 01:47:08;;;;;;;4.47;3.40;;;19.20;99.90;;;;;;5035528;28;20431;-80
2023/09/11 01:49:37;;;;;;;6.43;3.07;;;19.30;99.90;;;;;;5035134;28;21002;-80
2023/09/11 01:52:05;;;;;;;7.90;3.70;;;19.20;99.90;;;;;;5035124;28;20446;-80
2023/09/11 01:54:33;;;;;;;4.60;3.30;;;19.20;99.90;;;;;;5035335;28;20439;-80
2023/09/11 01:57:00;;;;;;;4.83;3.80;;;19.20;99.90;;;;;;5035312;28;20813;-80
2023/09/11 01:59:27;;;;;;;4.13;3.77;;;19.20;99.90;;;;;;5035214;28;20553;-80
2023/09/11 02:01:54;;;;;;;4.57;3.70;;;19.20;99.90;;;;;;5035100;28;20478;-80
2023/09/11 02:04:22;;;;;;;3.90;3.40;;;19.20;99.90;;;;;;5035122;28;20454;-80
2023/09/11 02:06:49;;;;;;;3.37;2.57;;;19.20;99.90;;;;;;5034861;28;20446;-81
2023/09/11 02:09:16;;;;;;;5.20;3.40;;;19.20;99.90;;;;;;5034765;28;20458;-81
2023/09/11 02:11:42;;;;;;;4.20;3.37;;;19.20;99.90;;;;;;5034646;28;20835;-80
2023/09/11 02:14:09;;;;;;;4.00;3.40;;;19.20;99.90;;;;;;5034664;28;21054;-80
2023/09/11 02:16:36;;;;;;;4.83;3.63;;;19.20;99.90;;;;;;5034855;28;20560;-80
2023/09/11 02:19:03;;;;;;;4.30;3.77;;;19.30;99.90;;;;;;5034842;28;20445;-80
2023/09/11 02:21:31;;;;;;;7.10;3.50;;;19.30;99.90;;;;;;5034557;28;20443;-80
2023/09/11 02:23:57;;;;;;;6.07;4.27;;;19.30;99.90;;;;;;5035445;28;20453;-80
2023/09/11 02:26:25;;;;;;;5.37;3.57;;;19.30;99.90;;;;;;5034385;28;20478;-80
2023/09/11 02:28:52;;;;;;;14.60;4.07;;;19.40;99.90;;;;;;5034022;28;20439;-80
2023/09/11 02:31:19;;;;;;;8.77;4.33;;;19.30;99.90;;;;;;5034298;28;20821;-80
2023/09/11 02:33:45;;;;;;;5.37;3.97;;;19.30;99.90;;;;;;5034584;28;20480;-80
2023/09/11 02:36:12;;;;;;;5.20;3.53;;;19.40;99.90;;;;;;5034456;28;20469;-80
2023/09/11 02:38:40;;;;;;;3.93;3.10;;;19.40;99.90;;;;;;5034234;28;20920;-80
2023/09/11 02:41:07;;;;;;;5.00;3.67;;;19.40;99.90;;;;;;5034089;28;20823;-80
2023/09/11 02:43:34;;;;;;;4.90;3.33;;;19.40;99.90;;;;;;5034337;28;20513;-80
2023/09/11 02:46:00;;;;;;;5.30;3.80;;;19.30;99.90;;;;;;5034278;28;20473;-81
2023/09/11 02:48:28;;;;;;;9.17;3.60;;;19.30;99.90;;;;;;5034075;28;20931;-80
2023/09/11 02:50:54;;;;;;;5.93;4.30;;;19.20;99.90;;;;;;5034296;28;20442;-80
2023/09/11 02:53:21;;;;;;;6.70;3.53;;;19.20;99.90;;;;;;5033956;28;20435;-80
2023/09/11 02:55:49;;;;;;;8.00;4.03;;;19.10;99.90;;;;;;5033879;28;20451;-80
2023/09/11 02:58:16;;;;;;;4.20;3.80;;;19.10;99.90;;;;;;5034119;28;20453;-80
2023/09/11 03:00:43;;;;;;;9.83;4.10;;;19.10;99.90;;;;;;5034067;28;20458;-80
2023/09/11 03:03:09;;;;;;;4.80;4.10;;;19.10;99.90;;;;;;5033958;28;20482;-80
2023/09/11 03:05:36;;;;;;;6.27;4.20;;;19.10;99.90;;;;;;5033577;28;20822;-80
2023/09/11 03:08:05;;;;;;;4.23;3.77;;;19.00;99.90;;;;;;5033960;28;20454;-80
2023/09/11 03:10:32;;;;;;;11.53;4.70;;;18.90;99.90;;;;;;5033582;28;20995;-80
2023/09/11 03:13:01;;;;;;;3.90;3.50;;;18.90;99.90;;;;;;5033550;28;20450;-80
2023/09/11 03:15:28;;;;;;;9.63;5.30;;;18.90;99.90;;;;;;5033757;28;20506;-81
2023/09/11 03:17:55;;;;;;;5.17;3.03;;;18.90;99.90;;;;;;5033464;28;20819;-80
2023/09/11 03:20:22;;;;;;;4.63;4.23;;;18.90;99.90;;;;;;5033774;28;20442;-80
2023/09/11 03:22:48;;;;;;;4.73;3.50;;;18.90;99.90;;;;;;5033374;28;21006;-80
2023/09/11 03:25:15;;;;;;;6.57;3.90;;;18.90;99.90;;;;;;5033675;28;20471;-80
2023/09/11 03:27:43;;;;;;;3.17;2.97;;;18.80;99.90;;;;;;5033727;28;20532;-81
2023/09/11 03:30:12;;;;;;;5.20;3.60;;;18.80;99.90;;;;;;5033599;28;20449;-80
2023/09/11 03:32:39;;;;;;;4.77;3.30;;;18.70;99.90;;;;;;5033597;28;20442;-80
2023/09/11 03:35:07;;;;;;;6.37;4.10;;;18.70;99.90;;;;;;5033165;28;20477;-80
2023/09/11 03:37:34;;;;;;;5.93;3.37;;;18.70;99.90;;;;;;5034181;28;20451;-80
2023/09/11 03:40:00;;;;;;;6.43;3.70;;;18.60;99.90;;;;;;5033076;28;20443;-80
2023/09/11 03:42:27;;;;;;;5.70;3.90;;;18.70;99.90;;;;;;5033001;28;20493;-80
2023/09/11 03:44:55;;;;;;;7.03;4.27;;;18.60;99.90;;;;;;5033571;28;20473;-80
2023/09/11 03:47:23;;;;;;;6.80;4.13;;;18.60;99.90;;;;;;5033076;28;20936;-80
2023/09/11 03:49:49;;;;;;;6.03;3.30;;;18.60;99.90;;;;;;5033321;28;20462;-80
2023/09/11 03:52:16;;;;;;;4.67;3.13;;;18.60;99.90;;;;;;5033324;28;20439;-81
2023/09/11 03:54:43;;;;;;;6.93;4.23;;;18.50;99.90;;;;;;5033237;28;20475;-81
2023/09/11 03:57:10;;;;;;;6.27;4.27;;;18.50;99.90;;;;;;5033262;28;20447;-81
2023/09/11 03:59:36;;;;;;;4.60;3.93;;;18.50;99.90;;;;;;5032905;28;20966;-80
2023/09/11 04:02:03;;;;;;;7.60;4.30;;;18.40;99.90;;;;;;5032807;28;20447;-80
2023/09/11 04:04:31;;;;;;;3.57;3.10;;;18.40;99.90;;;;;;5032845;28;20447;-80
2023/09/11 04:06:58;;;;;;;5.10;3.33;;;18.40;99.90;;;;;;5033285;28;20439;-80
2023/09/11 04:09:25;;;;;;;6.30;4.30;;;18.30;99.90;;;;;;5033145;28;20469;-80
2023/09/11 04:11:52;;;;;;;3.20;2.70;;;18.20;99.90;;;;;;5033264;28;20447;-80
2023/09/11 04:14:18;;;;;;;4.90;3.60;;;18.20;99.90;;;;;;5033005;28;20962;-80
2023/09/11 04:16:45;;;;;;;5.20;4.40;;;18.20;99.90;;;;;;5032747;28;20998;-80
2023/09/11 04:19:12;;;;;;;6.57;3.43;;;18.10;99.90;;;;;;5033279;28;20454;-80
2023/09/11 04:21:40;;;;;;;11.50;3.97;;;18.10;99.90;;;;;;5033174;28;20541;-80
2023/09/11 04:24:12;;;;;;;4.03;3.37;;;18.10;99.90;;;;;;5032919;28;20486;-80
2023/09/11 04:26:39;;;;;;;9.60;4.33;;;18.00;99.90;;;;;;5032391;28;21010;-80
2023/09/11 04:29:06;;;;;;;6.07;3.87;;;18.00;99.90;;;;;;5032646;28;20978;-80
2023/09/11 04:31:33;;;;;;;5.27;3.83;;;18.00;99.90;;;;;;5033206;28;20450;-80
2023/09/11 04:33:58;;;;;;;4.10;3.47;;;17.90;99.90;;;;;;5032962;28;20468;-80
2023/09/11 04:36:25;;;;;;;4.50;3.00;;;17.90;99.90;;;;;;5032763;28;20466;-80
2023/09/11 04:38:53;;;;;;;6.37;3.80;;;17.90;99.90;;;;;;5032955;28;20204;-80
2023/09/11 04:41:21;;;;;;;5.43;4.03;;;17.80;99.90;;;;;;5032625;28;20955;-80
2023/09/11 04:43:47;;;;;;;5.87;3.60;;;17.80;99.90;;;;;;5032735;28;20489;-80
2023/09/11 04:46:16;;;;;;;5.57;3.63;;;17.80;99.90;;;;;;5032776;28;20835;-80
2023/09/11 04:48:43;;;;;;;4.57;3.60;;;17.80;99.90;;;;;;5033017;28;20838;-80
2023/09/11 04:51:10;;;;;;;7.50;4.47;;;17.80;99.90;;;;;;5032754;28;20477;-80
2023/09/11 04:53:37;;;;;;;6.63;3.77;;;17.70;99.90;;;;;;5036080;28;20962;-80
2023/09/11 04:56:05;;;;;;;6.80;4.23;;;17.70;99.90;;;;;;5036030;28;20987;-80
2023/09/11 04:58:32;;;;;;;4.50;3.40;;;17.70;99.90;;;;;;5036458;28;20458;-80
2023/09/11 05:00:59;;;;;;;5.07;3.27;;;17.70;99.90;;;;;;5036341;28;20454;-80
2023/09/11 05:03:25;;;;;;;5.50;3.87;;;17.60;99.90;;;;;;5036237;28;20493;-80
2023/09/11 05:05:52;;;;;;;4.00;3.60;;;17.70;99.90;;;;;;5036387;28;20466;-80
2023/09/11 05:08:19;;;;;;;5.00;3.60;;;17.70;99.90;;;;;;5036208;28;20423;-80
2023/09/11 05:10:46;;;;;;;3.53;3.20;;;17.70;99.90;;;;;;5036081;28;20454;-80
2023/09/11 05:13:15;;;;;;;3.97;3.30;;;17.80;99.90;;;;;;5036112;28;20446;-80
2023/09/11 05:15:42;;;;;;;6.70;3.83;;;17.80;99.90;;;;;;5035952;28;20462;-80
2023/09/11 05:18:10;;;;;;;10.20;3.47;;;17.90;99.90;;;;;;5036004;28;20442;-80
2023/09/11 05:20:37;;;;;;;4.17;3.23;;;17.90;99.90;;;;;;5035989;28;20442;-80
2023/09/11 05:23:05;;;;;;;4.70;4.20;;;18.00;99.90;;;;;;5036069;28;20497;-80
2023/09/11 05:25:32;;;;;;;4.90;3.53;;;18.10;99.90;;;;;;5035915;28;20497;-80
2023/09/11 05:27:59;;;;;;;5.57;3.50;;;18.10;99.90;;;;;;5035589;28;20912;-80
2023/09/11 05:30:27;;;;;;;3.87;3.57;;;18.20;99.90;;;;;;5035671;28;20451;-80
2023/09/11 05:32:53;;;;;;;7.40;3.73;;;18.20;99.90;;;;;;5035665;28;20946;-80
2023/09/11 05:35:21;;;;;;;6.37;4.07;;;18.30;99.90;;;;;;5035622;28;20466;-80
2023/09/11 05:37:48;;;;;;;5.20;3.57;;;18.30;99.90;;;;;;5035664;28;20454;-80
2023/09/11 05:40:15;;;;;;;7.90;2.93;;;18.40;99.90;;;;;;5035720;28;20447;-80
2023/09/11 05:42:42;;;;;;;4.07;3.67;;;18.50;99.90;;;;;;5035213;28;20959;-80
2023/09/11 05:45:09;;;;;;;5.20;3.60;;;18.50;99.90;;;;;;5035486;28;20458;-80
2023/09/11 05:47:38;;;;;;;7.00;4.20;;;18.50;99.90;;;;;;5035479;28;20986;-80
2023/09/11 05:50:07;;;;;;;3.67;3.13;;;18.50;99.90;;;;;;5035439;28;20489;-80
2023/09/11 05:52:34;;;;;;;5.00;4.10;;;18.60;99.90;;;;;;5035292;28;20819;-80
2023/09/11 05:55:01;;;;;;;5.47;3.63;;;18.60;99.90;;;;;;5035283;28;20827;-80
2023/09/11 05:57:27;;;;;;;4.97;3.60;;;18.60;99.90;;;;;;5035496;28;20442;-80
2023/09/11 05:59:54;;;;;;;4.10;3.30;;;18.60;99.90;;;;;;5035431;28;20453;-80
2023/09/11 06:02:21;;;;;;;4.50;2.90;;;18.60;99.90;;;;;;5035179;28;20446;-80
2023/09/11 06:04:49;;;;;;;5.30;3.73;;;18.70;99.90;;;;;;5033950;28;20493;-80
2023/09/11 06:07:16;;;;;;;6.83;4.77;;;18.70;99.90;;;;;;5034755;28;20966;-80
2023/09/11 06:09:43;;;;;;;5.90;3.67;;;18.70;99.90;;;;;;5035077;28;20459;-80
2023/09/11 06:12:10;;;;;;;9.60;4.30;;;18.70;99.90;;;;;;5034677;28;20450;-80
2023/09/11 06:14:37;;;;;;;3.83;3.10;;;18.70;99.90;;;;;;5034926;28;20439;-80
2023/09/11 06:17:05;;;;;;;6.63;4.07;;;18.70;99.90;;;;;;5034940;28;20537;-80
2023/09/11 06:19:31;;;;;;;9.33;4.30;;;18.80;99.90;;;;;;5034730;28;20482;-80
2023/09/11 06:21:59;;;;;;;5.07;4.00;;;18.90;99.90;;;;;;5034837;28;20450;-80
2023/09/11 06:24:26;;;;;;;5.73;4.33;;;19.00;99.90;;;;;;5034713;28;20482;-80
2023/09/11 06:27:03;;;;;;;6.37;3.97;;;19.30;99.90;;;;;;5034383;28;20489;-80
2023/09/11 06:29:30;;;;;;;5.13;3.77;;;19.40;99.90;;;;;;5034728;28;20431;-80
2023/09/11 06:31:57;;;;;;;6.23;4.47;;;19.50;99.90;;;;;;5034343;28;20450;-80
2023/09/11 06:34:24;;;;;;;9.30;4.60;;;19.70;99.90;;;;;;5034533;28;20450;-80
2023/09/11 06:36:52;;;;;;;5.40;3.70;;;19.80;99.90;;;;;;5034592;28;20442;-80
2023/09/11 06:39:20;;;;;;;6.60;4.83;;;19.80;99.90;;;;;;5034529;28;20454;-81
2023/09/11 06:41:47;;;;;;;10.17;4.67;;;19.90;99.90;;;;;;5034472;28;20438;-81
2023/09/11 06:44:14;;;;;;;4.43;3.77;;;20.00;99.90;;;;;;5034354;28;20482;-81
2023/09/11 06:46:40;;;;;;;6.00;3.87;;;20.10;99.90;;;;;;5033986;28;20463;-80
2023/09/11 06:49:08;;;;;;;5.13;3.70;;;20.10;99.90;;;;;;5034064;28;20932;-81
2023/09/11 06:51:34;;;;;;;6.00;4.40;;;20.20;99.90;;;;;;5033979;28;20453;-80
2023/09/11 06:54:03;;;;;;;4.27;3.70;;;20.30;99.90;;;;;;5034919;28;20450;-80
2023/09/11 06:56:31;;;;;;;4.17;3.27;;;20.40;99.90;;;;;;5034054;28;20478;-81
2023/09/11 06:58:58;;;;;;;4.83;3.80;;;20.80;99.90;;;;;;5033931;28;20435;-81
2023/09/11 07:01:25;;;;;;;7.20;4.27;;;20.50;99.90;;;;;;5034114;28;20451;-83
2023/09/11 07:03:51;;;;;;;9.43;3.50;;;20.60;99.90;;;;;;5033714;28;20473;-82
2023/09/11 07:06:19;;;;;;;4.90;3.47;;;20.70;99.90;;;;;;5033966;28;20820;-82
2023/09/11 07:08:45;;;;;;;5.10;4.23;;;20.80;99.90;;;;;;5033976;28;20438;-82
2023/09/11 07:11:12;;;;;;;4.80;4.07;;;20.90;99.90;;;;;;5034153;28;20438;-82
2023/09/11 07:13:41;;;;;;;6.40;4.30;;;20.90;99.90;;;;;;5033654;28;20494;-82
2023/09/11 07:16:07;;;;;;;4.97;4.30;;;21.10;99.90;;;;;;5033790;28;20469;-82
2023/09/11 07:18:34;;;;;;;4.60;4.03;;;21.40;99.90;;;;;;5034628;28;20427;-82
2023/09/11 07:21:01;;;;;;;6.60;4.00;;;21.40;99.90;;;;;;5033562;28;20441;-82
2023/09/11 07:23:29;;;;;;;4.57;3.97;;;21.50;99.90;;;;;;5033661;28;20482;-82
2023/09/11 07:25:56;;;;;;;6.00;3.50;;;21.80;99.90;;;;;;5033411;28;20478;-82
2023/09/11 07:28:24;;;;;;;10.30;5.77;;;21.80;99.90;;;;;;5033722;28;20441;-82
2023/09/11 07:30:53;;;;;;;5.17;4.33;;;21.90;99.90;;;;;;5033777;28;20504;-83
2023/09/11 07:33:20;;;;;;;4.57;4.17;;;22.00;99.90;;;;;;5033618;28;20423;-82
2023/09/11 07:35:47;;;;;;;5.30;3.33;;;22.10;99.90;;;;;;5033490;28;20487;-83
2023/09/11 07:38:14;;;;;;;3.77;3.33;;;22.20;99.90;;;;;;5034103;28;20504;-81
2023/09/11 07:40:41;;;;;;;4.23;3.70;;;22.30;99.90;;;;;;5034094;28;20450;-83
2023/09/11 07:43:08;;;;;;;3.63;3.27;;;22.40;99.90;;;;;;5033356;28;20238;-83
2023/09/11 07:45:35;;;;;;;5.30;3.30;;;22.70;99.90;;;;;;5033364;28;20245;-83
2023/09/11 07:48:03;;;;;;;3.57;3.10;;;22.90;99.90;;;;;;5033174;28;20543;-83
2023/09/11 07:50:30;;;;;;;4.63;3.53;;;23.10;99.90;;;;;;5033334;28;20207;-83
2023/09/11 07:52:57;;;;;;;9.50;4.07;;;23.20;99.90;;;;;;5033326;28;20207;-83
2023/09/11 07:55:23;;;;;;;4.03;3.57;;;23.30;99.90;;;;;;5033131;28;20614;-83
2023/09/11 07:57:52;;;;;;;5.57;3.90;;;23.50;99.90;;;;;;5033116;28;20195;-83
2023/09/11 08:00:19;;;;;;;7.13;3.90;;;23.60;99.90;;;;;;5033641;28;20294;-83
2023/09/11 08:02:48;;;;;;;4.65;4.13;;;23.70;99.90;;;;;;5033413;28;20207;-83
2023/09/11 08:05:16;;;;;;;5.65;3.58;;;24.00;99.90;;;;;;5033022;28;20230;-83
2023/09/11 08:07:43;;;;;;;4.57;3.38;;;24.20;99.90;;;;;;5033200;28;20207;-83
2023/09/11 08:10:10;;;;;;;4.20;3.78;;;24.30;99.90;;;;;;5033424;28;20256;-82
2023/09/11 08:12:37;;;;;;;4.07;3.50;;;24.30;99.90;;;;;;5033330;28;20224;-83
2023/09/11 08:15:05;;;;;;;10.75;3.80;;;24.50;99.90;;;;;;5033089;28;20227;-84
2023/09/11 08:17:32;;;;;;;6.15;3.72;;;24.60;99.90;;;;;;5033095;28;20209;-83
2023/09/11 08:19:59;;;;;;;3.78;2.97;;;24.70;99.90;;;;;;5032923;28;20199;-83
2023/09/11 08:22:27;;;;;;;5.05;3.88;;;24.80;99.90;;;;;;5032968;28;20219;-84
2023/09/11 08:24:53;;;;;;;3.05;2.85;;;24.90;99.90;;;;;;5032935;28;20223;-84
2023/09/11 08:27:21;;;;;;;3.50;3.20;;;25.00;99.90;;;;;;5034195;28;20234;-84
2023/09/11 08:29:47;;;;;;;2.97;2.72;;;25.10;99.90;;;;;;5036900;28;20760;-84
2023/09/11 08:32:14;;;;;;;3.10;2.88;;;25.20;99.90;;;;;;5036697;28;20196;-83
2023/09/11 08:34:41;;;;;;;4.32;3.20;;;25.10;99.90;;;;;;5036503;28;20686;-83
2023/09/11 08:37:08;;;;;;;4.60;3.53;;;25.40;99.90;;;;;;5036815;28;20207;-83
2023/09/11 08:39:36;;;;;;;3.00;2.80;;;25.60;99.90;;;;;;5036732;28;20253;-83
2023/09/11 08:42:04;;;;;;;2.90;2.70;;;25.80;99.90;;;;;;5036736;28;20204;-83
2023/09/11 08:44:30;;;;;;;2.67;2.38;;;26.00;99.90;;;;;;5036374;28;20555;-83
2023/09/11 08:47:00;;;;;;;3.10;2.72;;;26.20;99.90;;;;;;5036700;28;20564;-83
2023/09/11 08:49:33;;;;;;;9.20;2.65;;;26.40;99.90;;;;;;5036611;28;20207;-84
2023/09/11 08:52:03;;;;;;;3.67;3.22;;;26.50;99.90;;;;;;5036623;28;20249;-83
2023/09/11 08:54:38;;;;;;;2.67;2.47;;;26.60;99.90;;;;;;5036717;28;20207;-84
2023/09/11 08:57:07;;;;;;;3.42;3.13;;;26.70;99.90;;;;;;5036522;28;20191;-83
2023/09/11 08:59:37;;;;;;;2.83;2.63;;;26.90;99.90;;;;;;5036417;28;20203;-83
2023/09/11 09:02:05;;;;;;;3.72;2.95;;;26.90;99.90;;;;;;5036438;28;20198;-83
2023/09/11 09:04:34;;;;;;;5.28;2.70;;;27.10;99.90;;;;;;5036179;28;20223;-83
2023/09/11 09:07:01;;;;;;;2.67;2.22;;;27.40;99.90;;;;;;5036541;28;20207;-84
2023/09/11 09:09:29;;;;;;;3.67;2.88;;;27.50;99.90;;;;;;5036247;28;20621;-84
2023/09/11 09:11:57;;;;;;;3.58;2.97;;;27.70;99.90;;;;;;5035888;28;20207;-83
2023/09/11 09:14:27;;;;;;;3.15;2.95;;;27.90;99.90;;;;;;5036037;28;20199;-84
2023/09/11 09:16:54;;;;;;;4.03;2.95;;;28.10;99.90;;;;;;5036097;28;20191;-84
2023/09/11 09:19:21;;;;;;;2.88;2.67;;;28.10;99.90;;;;;;5036316;28;20565;-84
2023/09/11 09:22:18;;;;;;;4.97;2.75;;;28.10;99.90;;;;;;5036014;28;20234;-83
2023/09/11 09:24:50;;;;;;;5.40;3.10;;;28.20;99.90;;;;;;4955477;29;20234;-83
2023/09/11 09:27:19;;;;;;;6.53;2.67;;;28.30;99.90;;;;;;5020187;28;20240;-83
2023/09/11 09:29:48;;;;;;;3.55;3.28;;;28.60;99.90;;;;;;5035699;28;20213;-83
2023/09/11 09:32:15;;;;;;;3.72;3.42;;;28.80;99.90;;;;;;5035851;28;20209;-83
2023/09/11 09:34:48;;;;;;;2.72;2.53;;;28.60;99.90;;;;;;5035384;28;20181;-84
2023/09/11 09:37:17;;;;;;;4.72;2.92;;;28.60;99.90;;;;;;5035943;28;20185;-83
2023/09/11 09:39:44;;;;;;;5.50;4.07;;;28.60;99.90;;;;;;5034166;28;20205;-83
2023/09/11 09:42:12;;;;;;;5.97;3.13;;;28.70;99.90;;;;;;5035269;28;20296;-83
2023/09/11 09:44:41;;;;;;;2.85;2.65;;;28.80;99.90;;;;;;5035166;28;20250;-83
2023/09/11 09:47:10;;;;;;;4.60;4.28;;;28.80;99.90;;;;;;5035526;28;20210;-83
2023/09/11 09:49:45;;;;;;;5.75;3.22;;;28.80;99.90;;;;;;5035444;28;20193;-83
2023/09/11 09:52:12;;;;;;;3.47;3.08;;;28.80;99.90;;;;;;5035494;28;20194;-83
2023/09/11 09:54:44;;;;;;;5.00;2.63;;;28.90;99.90;;;;;;5035683;28;20631;-83
2023/09/11 09:57:11;;;;;;;4.70;2.92;;;28.90;99.90;;;;;;5034985;28;20201;-83
2023/09/11 09:59:40;;;;;;;2.72;2.53;;;28.90;99.90;;;;;;5035455;28;20209;-83
2023/09/11 10:02:10;;;;;;;2.28;2.15;;;28.80;99.90;;;;;;5035258;28;20221;-83
2023/09/11 10:04:37;;;;;;;3.08;2.75;;;28.90;99.90;;;;;;5034730;28;20594;-83
2023/09/11 10:07:04;;;;;;;3.08;2.88;;;28.90;99.90;;;;;;5035443;28;20210;-83
2023/09/11 10:09:31;;;;;;;2.45;2.25;;;28.90;99.90;;;;;;5035142;28;20210;-83
2023/09/11 10:12:03;;;;;;;2.42;2.28;;;28.90;99.90;;;;;;5035031;28;20207;-83
2023/09/11 10:14:30;;;;;;;2.60;2.40;;;29.20;99.90;;;;;;5034943;28;20646;-83
2023/09/11 10:16:59;;;;;;;3.15;2.90;;;29.30;99.90;;;;;;5034954;28;20690;-83
2023/09/11 10:19:29;;;;;;;2.70;2.47;;;29.30;99.90;;;;;;5034926;28;20253;-83
2023/09/11 10:21:56;;;;;;;2.60;2.38;;;29.40;99.90;;;;;;5034609;28;20742;-83
2023/09/11 10:24:23;;;;;;;3.55;1.80;;;29.30;99.90;;;;;;5034757;28;20237;-83
2023/09/11 10:26:54;;;;;;;2.20;2.00;;;29.40;99.90;;;;;;5034530;28;20236;-82
2023/09/11 10:29:30;;;;;;;3.08;2.88;;;29.50;99.90;;;;;;5034544;28;20190;-82
2023/09/11 10:32:05;;;;;;;2.03;1.92;;;29.60;99.90;;;;;;5034427;28;20617;-82
2023/09/11 10:34:32;;;;;;;2.13;1.67;;;29.50;99.90;;;;;;5034988;28;20194;-82
2023/09/11 10:37:00;;;;;;;4.57;1.80;;;29.60;99.60;;;;;;5034345;28;20195;-82
2023/09/11 10:39:28;;;;;;;3.45;2.13;;;29.70;98.10;;;;;;5034631;28;20207;-83
2023/09/11 10:41:54;;;;;;;3.25;1.80;;;29.80;97.40;;;;;;5034487;28;20214;-83
2023/09/11 10:44:21;;;;;;;3.42;2.10;;;29.80;98.00;;;;;;5034747;28;20223;-82
2023/09/11 10:46:49;;;;;;;3.40;1.90;;;29.70;97.50;;;;;;5034284;28;20226;-82
2023/09/11 10:49:19;;;;;;;3.13;1.95;;;29.80;97.10;;;;;;5034011;28;20222;-82
2023/09/11 10:51:47;;;;;;;2.13;1.58;;;29.90;96.90;;;;;;5034262;28;20209;-81
2023/09/11 10:54:15;;;;;;;2.20;2.00;;;30.00;96.60;;;;;;5034279;28;20620;-81
2023/09/11 10:56:43;;;;;;;3.67;2.40;;;30.10;95.60;;;;;;5033758;28;20712;-81
2023/09/11 10:59:11;;;;;;;3.70;1.75;;;30.20;96.10;;;;;;5034000;28;20255;-81
2023/09/11 11:01:38;;;;;;;4.88;2.85;;;30.30;97.80;;;;;;5033860;28;20196;-81
2023/09/11 11:04:05;;;;;;;2.88;2.53;;;30.20;97.30;;;;;;5033778;28;20219;-82
2023/09/11 11:06:34;;;;;;;1.85;1.75;;;30.20;97.30;;;;;;5033991;28;20220;-82
2023/09/11 11:09:01;;;;;;;3.38;2.17;;;30.30;96.00;;;;;;5033743;28;20666;-82
2023/09/11 11:11:29;;;;;;;3.42;2.28;;;30.20;96.60;;;;;;5033922;28;20208;-81
2023/09/11 11:14:17;;;;;;;2.75;2.20;;;30.10;95.60;;;;;;5033892;28;20205;-81
2023/09/11 11:17:00;;;;;;;2.40;2.20;;;30.00;96.60;;;;;;5033794;28;20236;-81
2023/09/11 11:19:29;;;;;;;9.38;2.67;;;30.00;95.70;;;;;;5031850;28;20203;-81
2023/09/11 11:21:58;;;;;;;3.60;2.50;;;30.00;95.90;;;;;;5033742;28;20215;-81
2023/09/11 11:24:25;;;;;;;4.28;2.13;;;29.90;95.90;;;;;;5033392;28;20203;-81
2023/09/11 11:26:56;;;;;;;2.92;2.72;;;29.90;96.20;;;;;;5033529;28;20244;-81
2023/09/11 11:29:24;;;;;;;2.15;1.95;;;29.90;96.10;;;;;;5033659;28;20204;-81
2023/09/11 11:31:57;;;;;;;3.17;2.38;;;29.90;96.70;;;;;;5033246;28;20619;-81
2023/09/11 11:34:27;;;;;;;5.38;2.65;;;29.90;96.00;;;;;;5033602;28;20191;-81
2023/09/11 11:36:57;;;;;;;2.55;2.35;;;29.90;95.80;;;;;;5033522;28;20284;-81
2023/09/11 11:39:27;;;;;;;2.05;1.95;;;30.00;96.80;;;;;;5033530;28;20196;-81
2023/09/11 11:41:54;;;;;;;3.45;3.15;;;30.10;96.20;;;;;;5033539;28;20209;-81
2023/09/11 11:44:22;;;;;;;2.28;2.00;;;30.10;96.10;;;;;;5033009;28;20671;-82
2023/09/11 11:46:49;;;;;;;3.42;2.22;;;30.10;96.00;;;;;;5033203;28;20213;-81
2023/09/11 11:49:20;;;;;;;6.10;2.92;;;30.00;96.30;;;;;;5033331;28;20581;-81
2023/09/11 11:51:47;;;;;;;8.82;2.33;;;30.00;96.00;;;;;;5033135;28;20270;-81
2023/09/11 11:54:22;;;;;;;6.07;2.42;;;30.10;95.20;;;;;;5033077;28;20200;-81
2023/09/11 11:56:54;;;;;;;2.20;2.00;;;30.00;95.40;;;;;;5033160;28;20288;-81
2023/09/11 11:59:21;;;;;;;2.85;2.03;;;29.90;95.90;;;;;;5033678;28;20557;-82
2023/09/11 12:01:47;;;;;;;4.30;2.53;;;29.80;96.10;;;;;;5032257;28;20210;-82
2023/09/11 12:04:14;;;;;;;2.10;2.00;;;29.60;97.10;;;;;;5033242;28;20200;-81
2023/09/11 12:06:41;;;;;;;3.13;1.73;;;29.50;96.40;;;;;;5032737;28;20218;-81
2023/09/11 12:09:10;;;;;;;3.28;2.70;;;29.40;96.40;;;;;;5033407;28;20209;-81
2023/09/11 12:11:39;;;;;;;7.32;2.53;;;29.40;96.90;;;;;;5033142;28;20210;-80
2023/09/11 12:14:12;;;;;;;2.30;2.10;;;29.40;97.30;;;;;;5033155;28;20255;-81
2023/09/11 12:16:39;;;;;;;2.88;2.40;;;29.60;96.50;;;;;;5033109;28;20348;-82
2023/09/11 12:19:06;;;;;;;3.13;2.67;;;29.60;96.30;;;;;;5033123;28;20206;-81
2023/09/11 12:21:32;;;;;;;2.25;2.05;;;29.50;96.50;;;;;;5033028;28;20205;-81
2023/09/11 12:24:00;;;;;;;2.33;2.17;;;29.40;96.30;;;;;;5033002;28;20236;-81
2023/09/11 12:26:27;;;;;;;6.15;2.65;;;29.30;96.50;;;;;;5032350;28;20241;-81
2023/09/11 12:28:54;;;;;;;2.40;2.20;;;29.10;95.90;;;;;;5032982;28;20217;-81
2023/09/11 12:31:22;;;;;;;3.33;2.33;;;29.10;95.50;;;;;;5032632;28;20556;-81
2023/09/11 12:33:53;;;;;;;4.60;2.63;;;29.00;96.10;;;;;;5032645;28;20207;-81
2023/09/11 12:36:21;;;;;;;3.08;2.88;;;28.90;96.90;;;;;;5032884;28;20225;-81
2023/09/11 12:38:48;;;;;;;3.42;2.53;;;28.90;97.00;;;;;;5032906;28;20204;-81
2023/09/11 12:41:15;;;;;;;2.13;1.83;;;28.90;96.90;;;;;;5032962;28;20203;-81
2023/09/11 12:43:42;;;;;;;3.80;2.90;;;28.90;96.50;;;;;;5032881;28;20188;-81
2023/09/11 12:46:10;;;;;;;3.25;2.80;;;28.90;96.30;;;;;;5032505;28;20235;-81
2023/09/11 12:48:41;;;;;;;4.88;2.90;;;28.80;96.80;;;;;;5033074;28;20208;-82
2023/09/11 12:51:08;;;;;;;2.60;2.38;;;28.70;96.60;;;;;;5032622;28;20180;-81